Time;durP1;ratioP1;P1;durP2;ratioP2;P2;SDS_P1;SDS_P2;PMS_P1;PMS_P2;Temp;Humidity;BMP_temperature;BMP_pressure;BME280_temperature;BME280_humidity;BME280_pressure;Samples;Min_cycle;Max_cycle;Signal;HPM_P1;HPM_P2
2022/12/26 00:01:21;;;;;;;1.60;1.60;;;18.10;67.40;;;;;;5087284;28;43421;-71
2022/12/26 00:03:49;;;;;;;1.57;1.57;;;18.10;67.40;;;;;;5086014;28;43848;-71
2022/12/26 00:06:19;;;;;;;1.60;1.60;;;18.10;67.50;;;;;;5068276;28;44720;-71
2022/12/26 00:08:47;;;;;;;1.30;1.30;;;18.00;67.70;;;;;;5086194;28;44006;-72
2022/12/26 00:11:15;;;;;;;1.40;1.40;;;18.10;67.70;;;;;;5086760;28;43462;-71
2022/12/26 00:13:43;;;;;;;1.47;1.47;;;18.20;67.30;;;;;;5068043;28;46162;-71
2022/12/26 00:16:12;;;;;;;1.57;1.57;;;18.30;67.00;;;;;;5085966;28;43571;-71
2022/12/26 00:18:42;;;;;;;1.40;1.40;;;18.30;66.70;;;;;;5082607;28;43444;-71
2022/12/26 00:21:11;;;;;;;1.20;1.20;;;18.30;66.70;;;;;;5086454;28;43490;-72
2022/12/26 00:23:39;;;;;;;1.60;1.60;;;18.30;67.00;;;;;;5086780;28;43844;-71
2022/12/26 00:26:08;;;;;;;1.50;1.50;;;18.30;67.00;;;;;;5086107;28;44036;-71
2022/12/26 00:28:36;;;;;;;1.40;1.40;;;18.30;66.90;;;;;;5086180;28;43438;-71
2022/12/26 00:31:04;;;;;;;1.60;1.60;;;18.30;66.90;;;;;;5063000;28;43546;-72
2022/12/26 00:33:33;;;;;;;1.33;1.33;;;18.20;66.90;;;;;;5085846;28;43851;-72
2022/12/26 00:36:03;;;;;;;1.20;1.20;;;18.20;67.10;;;;;;5086307;28;43525;-71
2022/12/26 00:38:31;;;;;;;1.67;1.67;;;18.20;67.40;;;;;;5079531;28;43375;-71
2022/12/26 00:40:59;;;;;;;1.50;1.50;;;18.20;67.30;;;;;;5086416;28;43412;-72
2022/12/26 00:43:27;;;;;;;1.53;1.40;;;18.20;67.20;;;;;;5079402;28;44138;-71
2022/12/26 00:45:55;;;;;;;1.53;1.53;;;18.20;67.20;;;;;;5080390;28;43321;-70
2022/12/26 00:48:24;;;;;;;1.30;1.30;;;18.10;67.20;;;;;;5087265;27;43480;-73
2022/12/26 00:50:52;;;;;;;1.23;1.23;;;18.10;67.30;;;;;;5069835;28;43537;-71
2022/12/26 00:53:21;;;;;;;1.23;1.23;;;18.10;67.60;;;;;;5089627;28;43681;-71
2022/12/26 00:55:50;;;;;;;1.50;1.50;;;18.10;67.50;;;;;;5089502;28;43539;-73
2022/12/26 00:58:18;;;;;;;1.17;1.17;;;18.20;67.10;;;;;;5067522;28;44350;-72
2022/12/26 01:00:46;;;;;;;1.43;1.43;;;18.30;66.90;;;;;;5071264;28;43545;-71
2022/12/26 01:03:14;;;;;;;1.30;1.30;;;18.30;66.80;;;;;;5070837;28;45454;-72
2022/12/26 01:05:42;;;;;;;1.30;1.30;;;18.30;66.90;;;;;;5089563;28;43438;-71
2022/12/26 01:08:10;;;;;;;1.50;1.50;;;18.20;67.00;;;;;;5083265;28;43371;-70
2022/12/26 01:10:52;;;;;;;1.40;1.40;;;18.20;67.00;;;;;;5071171;28;43500;-71
2022/12/26 01:13:19;;;;;;;1.40;1.40;;;18.20;66.90;;;;;;5088276;28;43934;-71
2022/12/26 01:15:49;;;;;;;1.43;1.43;;;18.20;67.00;;;;;;5088883;28;43503;-72
2022/12/26 01:18:17;;;;;;;1.43;1.43;;;18.20;67.80;;;;;;5088601;28;43681;-71
2022/12/26 01:20:45;;;;;;;1.23;1.23;;;18.20;67.20;;;;;;5089537;28;43490;-71
2022/12/26 01:23:13;;;;;;;1.50;1.50;;;18.10;67.40;;;;;;5089029;28;43903;-71
2022/12/26 01:25:41;;;;;;;1.40;1.40;;;18.20;67.40;;;;;;5088548;28;43515;-71
2022/12/26 01:28:31;;;;;;;1.20;1.20;;;18.30;67.10;;;;;;5088100;28;43532;-71
2022/12/26 01:31:01;;;;;;;1.40;1.40;;;18.30;66.80;;;;;;5070927;28;43464;-71
2022/12/26 01:33:29;;;;;;;1.33;1.33;;;18.30;66.80;;;;;;5069576;28;45675;-72
2022/12/26 01:35:57;;;;;;;1.40;1.40;;;18.30;66.90;;;;;;5088340;28;43444;-73
2022/12/26 01:38:25;;;;;;;1.37;1.37;;;18.20;67.00;;;;;;5089335;28;43512;-71
2022/12/26 01:41:15;;;;;;;1.30;1.30;;;18.20;67.00;;;;;;5087058;28;43431;-71
2022/12/26 01:43:54;;;;;;;1.40;1.40;;;18.20;66.90;;;;;;5083662;28;44371;-70
2022/12/26 01:46:24;;;;;;;1.30;1.30;;;18.20;67.00;;;;;;5088620;28;43649;-71
2022/12/26 01:48:52;;;;;;;1.10;1.10;;;18.20;67.00;;;;;;5089106;28;43364;-72
2022/12/26 01:51:21;;;;;;;1.53;1.53;;;18.20;67.30;;;;;;5089186;28;43399;-70
2022/12/26 01:53:51;;;;;;;1.20;1.20;;;18.20;67.40;;;;;;5088601;28;43887;-71
2022/12/26 01:56:20;;;;;;;1.40;1.40;;;18.20;67.30;;;;;;5069850;28;44471;-71
2022/12/26 01:58:50;;;;;;;1.40;1.40;;;18.20;67.30;;;;;;5088163;27;43467;-71
2022/12/26 02:01:19;;;;;;;1.33;1.33;;;18.20;67.30;;;;;;5089085;28;43901;-71
2022/12/26 02:06:33;;;;;;;1.23;1.23;;;18.10;67.50;;;;;;5088355;28;44020;-72
2022/12/26 02:09:01;;;;;;;1.33;1.30;;;18.10;67.60;;;;;;5088388;28;43439;-71
2022/12/26 02:11:31;;;;;;;1.30;1.30;;;18.20;67.20;;;;;;5070614;28;43562;-71
2022/12/26 02:13:59;;;;;;;1.30;1.30;;;18.30;66.80;;;;;;5087929;28;43956;-72
2022/12/26 02:16:28;;;;;;;1.50;1.50;;;18.40;66.70;;;;;;5069054;28;44560;-70
2022/12/26 02:18:57;;;;;;;1.30;1.30;;;18.40;66.70;;;;;;5088208;28;43767;-73
2022/12/26 02:21:52;;;;;;;1.30;1.30;;;18.30;66.70;;;;;;5088950;28;43523;-71
2022/12/26 02:24:51;;;;;;;1.10;1.10;;;18.30;66.90;;;;;;5080294;28;43924;-72
2022/12/26 02:27:26;;;;;;;1.30;1.30;;;18.30;66.80;;;;;;5088154;28;43517;-71
2022/12/26 02:30:16;;;;;;;1.20;1.20;;;18.30;66.90;;;;;;5088607;28;43497;-71
2022/12/26 02:33:02;;;;;;;1.43;1.43;;;18.20;66.90;;;;;;5087538;28;43644;-72
2022/12/26 02:35:42;;;;;;;1.30;1.30;;;18.20;67.10;;;;;;5083210;28;43914;-71
2022/12/26 02:38:16;;;;;;;1.30;1.30;;;18.20;67.40;;;;;;5087946;28;43431;-72
2022/12/26 02:40:49;;;;;;;1.30;1.30;;;18.20;67.30;;;;;;5086155;28;43413;-71
2022/12/26 02:43:22;;;;;;;1.20;1.20;;;18.10;67.10;;;;;;5088462;28;43403;-70
2022/12/26 02:48:44;;;;;;;1.10;1.10;;;18.10;67.30;;;;;;5083342;28;43478;-71
2022/12/26 03:13:48;;;;;;;1.20;1.20;;;18.30;66.80;;;;;;5068926;28;43967;-72
2022/12/26 03:19:03;;;;;;;1.13;1.13;;;18.20;67.00;;;;;;5079128;28;43598;-72
2022/12/26 03:21:34;;;;;;;1.30;1.30;;;18.20;67.30;;;;;;5082649;28;44473;-72
2022/12/26 03:24:02;;;;;;;1.10;1.10;;;18.20;67.30;;;;;;5087325;28;43954;-70
2022/12/26 03:26:40;;;;;;;1.30;1.30;;;18.20;67.20;;;;;;5087617;28;43536;-73
2022/12/26 03:31:55;;;;;;;1.17;1.17;;;18.10;67.20;;;;;;5086995;28;43553;-72
2022/12/26 03:34:23;;;;;;;1.40;1.40;;;18.10;67.70;;;;;;5084727;28;43426;-72
2022/12/26 03:37:03;;;;;;;1.20;1.20;;;18.10;67.60;;;;;;5086624;27;44021;-72
2022/12/26 04:44:08;;;;;;;1.10;1.10;;;18.10;67.30;;;;;;5081207;28;43500;-70
2022/12/26 04:46:38;;;;;;;1.10;1.10;;;18.10;67.40;;;;;;5086164;28;43779;-72
2022/12/26 04:51:53;;;;;;;1.30;1.30;;;18.10;67.60;;;;;;5080865;28;43390;-71
2022/12/26 04:54:21;;;;;;;1.20;1.20;;;18.20;67.20;;;;;;5086459;28;43578;-71
2022/12/26 04:56:48;;;;;;;1.33;1.33;;;18.40;66.80;;;;;;5067031;28;46045;-71
2022/12/26 04:59:18;;;;;;;1.17;1.17;;;18.40;66.70;;;;;;5062234;28;44609;-71
2022/12/26 05:10:05;;;;;;;1.23;1.23;;;18.30;66.60;;;;;;5063234;28;44687;-72
2022/12/26 05:12:33;;;;;;;1.10;1.10;;;18.30;66.70;;;;;;5081207;28;43458;-70
2022/12/26 05:15:03;;;;;;;1.10;1.10;;;18.20;66.90;;;;;;5086161;28;43472;-70
2022/12/26 05:28:58;;;;;;;1.00;1.00;;;18.10;67.20;;;;;;5020680;28;46349;-71
2022/12/26 05:31:28;;;;;;;1.00;1.00;;;18.10;67.40;;;;;;5085437;28;43847;-71
2022/12/26 05:34:04;;;;;;;1.10;1.10;;;18.10;67.70;;;;;;5085939;27;43453;-71
2022/12/26 05:36:35;;;;;;;1.20;1.20;;;18.10;67.50;;;;;;5089436;28;43445;-72
2022/12/26 05:39:03;;;;;;;1.07;1.07;;;18.20;67.10;;;;;;5070032;28;45775;-71
2022/12/26 05:41:31;;;;;;;1.10;1.10;;;18.30;66.90;;;;;;5086062;28;44052;-71
2022/12/26 05:43:59;;;;;;;1.20;1.20;;;18.30;67.60;;;;;;5088515;28;43410;-71
2022/12/26 05:46:28;;;;;;;1.20;1.20;;;18.20;66.90;;;;;;5089468;28;43345;-73
2022/12/26 05:48:56;;;;;;;1.40;1.40;;;18.20;67.10;;;;;;5088836;28;44005;-73
2022/12/26 05:51:24;;;;;;;1.10;1.10;;;18.20;67.00;;;;;;5089156;28;43431;-71
2022/12/26 05:53:52;;;;;;;1.10;1.10;;;18.20;67.00;;;;;;5086451;28;43402;-71
2022/12/26 05:56:20;;;;;;;1.00;1.00;;;18.20;67.00;;;;;;5070431;28;43594;-71
2022/12/26 05:58:54;;;;;;;1.00;1.00;;;18.20;67.20;;;;;;5088139;28;43704;-73
2022/12/26 06:01:22;;;;;;;1.20;1.20;;;18.10;67.30;;;;;;5088768;28;43452;-71
2022/12/26 06:03:52;;;;;;;1.10;1.10;;;18.10;67.60;;;;;;5088229;28;43313;-70
2022/12/26 06:06:20;;;;;;;1.20;1.20;;;18.20;67.40;;;;;;5089099;28;43380;-71
2022/12/26 06:08:48;;;;;;;1.03;1.03;;;18.20;67.00;;;;;;5086743;28;43844;-71
2022/12/26 06:11:16;;;;;;;1.10;1.10;;;18.30;66.90;;;;;;5088538;28;43420;-71
2022/12/26 06:13:44;;;;;;;1.10;1.10;;;18.30;66.90;;;;;;5088349;28;43483;-71
2022/12/26 06:16:13;;;;;;;1.13;1.13;;;18.20;66.90;;;;;;5070444;28;43658;-71
2022/12/26 06:18:41;;;;;;;1.10;1.10;;;18.20;67.20;;;;;;5087739;28;43658;-72
2022/12/26 06:21:11;;;;;;;1.30;1.30;;;18.20;67.10;;;;;;5088280;28;43368;-73
2022/12/26 06:23:39;;;;;;;1.20;1.20;;;18.20;67.10;;;;;;5088408;28;43500;-72
2022/12/26 06:26:08;;;;;;;1.10;1.10;;;18.20;67.10;;;;;;5088519;28;43517;-72
2022/12/26 06:28:37;;;;;;;1.20;1.20;;;18.20;67.30;;;;;;5087753;28;44017;-72
2022/12/26 06:31:06;;;;;;;0.90;0.90;;;18.10;67.30;;;;;;5069286;28;44558;-71
2022/12/26 06:33:34;;;;;;;1.20;1.20;;;18.10;67.60;;;;;;5088331;28;43402;-71
2022/12/26 06:36:04;;;;;;;1.10;1.10;;;18.10;67.40;;;;;;5082832;28;43498;-71
2022/12/26 06:38:33;;;;;;;1.20;1.20;;;18.10;67.30;;;;;;5087356;28;43908;-72
2022/12/26 06:41:01;;;;;;;1.10;1.10;;;18.10;67.30;;;;;;5087697;28;43418;-70
2022/12/26 06:43:29;;;;;;;1.10;1.10;;;18.10;67.40;;;;;;5069362;28;44087;-72
2022/12/26 06:45:57;;;;;;;1.20;1.20;;;18.10;67.60;;;;;;5087061;27;43711;-70
2022/12/26 06:48:25;;;;;;;1.10;1.10;;;18.10;67.70;;;;;;5087272;28;44029;-71
2022/12/26 06:50:54;;;;;;;1.20;1.20;;;18.20;67.50;;;;;;5086807;27;43644;-71
2022/12/26 06:53:22;;;;;;;1.20;1.20;;;18.30;67.10;;;;;;5081062;28;43511;-70
2022/12/26 06:55:51;;;;;;;1.10;1.10;;;18.30;66.70;;;;;;5084100;28;43501;-71
2022/12/26 06:58:19;;;;;;;1.10;1.10;;;18.30;66.60;;;;;;5087514;28;43756;-72
2022/12/26 07:00:47;;;;;;;1.10;1.10;;;18.30;66.80;;;;;;5081245;28;43948;-72
2022/12/26 07:03:15;;;;;;;1.10;1.10;;;18.30;67.10;;;;;;5066830;28;43439;-71
2022/12/26 07:05:43;;;;;;;1.17;1.17;;;18.30;66.80;;;;;;5068996;28;43467;-72
2022/12/26 07:08:11;;;;;;;1.03;1.03;;;18.30;66.90;;;;;;5087592;28;43815;-71
2022/12/26 07:10:39;;;;;;;1.07;1.07;;;18.30;66.90;;;;;;5063687;28;44796;-70
2022/12/26 07:13:08;;;;;;;1.03;1.03;;;18.20;67.00;;;;;;5087728;28;44042;-72
2022/12/26 07:15:36;;;;;;;1.10;1.10;;;18.20;67.20;;;;;;5063390;28;43488;-72
2022/12/26 07:18:04;;;;;;;1.10;1.10;;;18.10;67.40;;;;;;5063012;28;45716;-71
2022/12/26 07:20:32;;;;;;;1.03;1.03;;;18.10;67.40;;;;;;5068632;28;44765;-72
2022/12/26 07:23:00;;;;;;;1.00;1.00;;;18.10;67.60;;;;;;5068677;28;43895;-72
2022/12/26 07:25:28;;;;;;;1.10;1.10;;;18.00;67.60;;;;;;5087832;28;43398;-71
2022/12/26 07:27:56;;;;;;;1.00;1.00;;;18.00;67.70;;;;;;5087517;28;44056;-73
2022/12/26 07:30:25;;;;;;;1.17;1.17;;;18.00;67.80;;;;;;5087578;28;43494;-71
2022/12/26 07:32:53;;;;;;;1.00;1.00;;;18.00;68.00;;;;;;5083346;28;44075;-72
2022/12/26 07:35:21;;;;;;;1.00;1.00;;;18.10;67.70;;;;;;5087201;28;43473;-73
2022/12/26 07:37:49;;;;;;;1.20;1.20;;;18.20;68.10;;;;;;5087051;28;43849;-71
2022/12/26 07:40:17;;;;;;;1.10;1.10;;;18.40;67.00;;;;;;5068529;28;44268;-72
2022/12/26 07:42:45;;;;;;;1.00;1.00;;;18.50;66.50;;;;;;5086804;28;43539;-71
2022/12/26 07:45:12;;;;;;;1.10;1.10;;;18.70;66.10;;;;;;5087448;28;43805;-71
2022/12/26 07:47:43;;;;;;;1.00;1.00;;;18.80;65.60;;;;;;5058972;28;45924;-71
2022/12/26 07:50:11;;;;;;;0.90;0.90;;;19.00;65.20;;;;;;5080860;28;43490;-70
2022/12/26 07:52:39;;;;;;;1.00;1.00;;;19.10;64.70;;;;;;5086688;28;43419;-71
2022/12/26 07:55:07;;;;;;;1.10;1.10;;;19.20;64.40;;;;;;5087632;28;43399;-71
2022/12/26 07:57:35;;;;;;;1.10;1.10;;;19.30;64.10;;;;;;5067853;28;46382;-71
2022/12/26 08:00:17;;;;;;;1.00;1.00;;;19.40;63.90;;;;;;5064454;28;44445;-73
2022/12/26 08:02:47;;;;;;;1.00;1.00;;;19.40;63.80;;;;;;5086610;28;43538;-71
2022/12/26 08:05:15;;;;;;;0.90;0.90;;;19.30;63.90;;;;;;5087215;28;43448;-71
2022/12/26 08:07:43;;;;;;;1.10;1.10;;;19.20;64.10;;;;;;5085744;27;43654;-72
2022/12/26 08:10:11;;;;;;;1.10;1.10;;;19.10;64.60;;;;;;5086686;28;44044;-71
2022/12/26 08:12:39;;;;;;;1.00;1.00;;;18.90;65.20;;;;;;5067989;28;43423;-71
2022/12/26 08:15:09;;;;;;;1.03;1.03;;;18.90;65.40;;;;;;5085814;28;43967;-73
2022/12/26 08:17:37;;;;;;;1.10;1.10;;;18.80;65.50;;;;;;5081622;28;43905;-71
2022/12/26 08:20:07;;;;;;;1.00;1.00;;;18.70;65.70;;;;;;5086050;28;44064;-72
2022/12/26 08:22:35;;;;;;;0.90;0.90;;;18.60;65.90;;;;;;5086250;28;43375;-72
2022/12/26 08:25:04;;;;;;;0.90;0.90;;;18.50;66.40;;;;;;5086838;28;43595;-72
2022/12/26 08:27:31;;;;;;;1.03;1.03;;;18.50;66.60;;;;;;5086419;28;43947;-71
2022/12/26 08:29:59;;;;;;;1.20;1.20;;;18.40;66.50;;;;;;5085668;28;43406;-71
2022/12/26 08:32:27;;;;;;;0.90;0.90;;;18.40;66.60;;;;;;5086710;28;43394;-73
2022/12/26 08:34:55;;;;;;;1.03;1.03;;;18.40;66.70;;;;;;5087002;28;43408;-71
2022/12/26 08:37:24;;;;;;;1.17;1.17;;;18.30;66.90;;;;;;5086294;28;43998;-70
2022/12/26 08:39:52;;;;;;;1.00;1.00;;;18.30;67.20;;;;;;5067403;28;44650;-71
2022/12/26 08:42:20;;;;;;;1.20;1.20;;;18.40;67.00;;;;;;5067630;28;43411;-73
2022/12/26 08:44:48;;;;;;;1.10;1.10;;;18.50;66.70;;;;;;5086853;28;43487;-71
2022/12/26 08:47:16;;;;;;;1.00;1.00;;;18.50;66.40;;;;;;5067623;28;45391;-70
2022/12/26 08:49:44;;;;;;;1.27;1.10;;;18.50;66.30;;;;;;5086178;28;43425;-72
2022/12/26 08:52:12;;;;;;;1.00;1.00;;;18.50;66.30;;;;;;5085761;28;43426;-72
2022/12/26 08:54:42;;;;;;;1.10;1.10;;;18.50;66.80;;;;;;5068178;28;43984;-70
2022/12/26 08:57:09;;;;;;;1.00;1.00;;;18.50;66.70;;;;;;5086207;28;43917;-72
2022/12/26 08:59:38;;;;;;;1.00;1.00;;;18.40;66.60;;;;;;5067327;28;44382;-72
2022/12/26 09:02:06;;;;;;;0.93;0.93;;;18.40;66.70;;;;;;5067722;28;43431;-71
2022/12/26 09:04:34;;;;;;;0.90;0.90;;;18.30;66.60;;;;;;5068105;28;43535;-71
2022/12/26 09:07:02;;;;;;;1.00;1.00;;;18.30;67.00;;;;;;5086161;28;43664;-70
2022/12/26 09:09:30;;;;;;;0.90;0.90;;;18.30;67.20;;;;;;5086929;27;43469;-70
2022/12/26 09:11:59;;;;;;;0.90;0.90;;;18.30;67.10;;;;;;5068815;28;43475;-72
2022/12/26 09:14:27;;;;;;;1.00;1.00;;;18.30;67.10;;;;;;5090445;28;43429;-72
2022/12/26 09:16:55;;;;;;;1.00;1.00;;;18.20;67.00;;;;;;5070117;28;46288;-70
2022/12/26 09:19:23;;;;;;;0.83;0.83;;;18.20;67.20;;;;;;5089599;28;43985;-70
2022/12/26 09:22:49;;;;;;;1.00;1.00;;;18.20;67.60;;;;;;5089544;28;43435;-72
2022/12/26 09:24:40;;;;;;;0.90;0.90;;;18.20;67.50;;;;;;5066909;28;43471;-71
2022/12/26 09:27:10;;;;;;;1.00;1.00;;;18.30;67.20;;;;;;5089520;28;43999;-70
2022/12/26 09:29:38;;;;;;;1.00;1.00;;;18.40;67.00;;;;;;5089477;28;43975;-71
2022/12/26 09:32:06;;;;;;;1.00;1.00;;;18.40;66.70;;;;;;5089234;28;43457;-71
2022/12/26 09:34:34;;;;;;;0.90;0.90;;;18.40;66.70;;;;;;5089767;28;43990;-72
2022/12/26 09:37:01;;;;;;;0.80;0.80;;;18.30;66.90;;;;;;5088798;28;44077;-71
2022/12/26 09:39:29;;;;;;;0.90;0.90;;;18.30;66.90;;;;;;5066223;28;45113;-71
2022/12/26 09:42:02;;;;;;;0.90;0.90;;;18.30;66.80;;;;;;5089220;28;43401;-70
2022/12/26 09:44:41;;;;;;;0.97;0.97;;;18.30;67.00;;;;;;5088805;28;43518;-71
2022/12/26 09:47:20;;;;;;;1.00;1.00;;;18.20;67.00;;;;;;5070717;28;44315;-71
2022/12/26 09:49:55;;;;;;;1.10;1.10;;;18.20;67.40;;;;;;5089026;28;43401;-72
2022/12/26 09:52:24;;;;;;;1.00;1.00;;;18.20;67.40;;;;;;5088986;28;43445;-71
2022/12/26 09:54:53;;;;;;;1.00;1.00;;;18.20;67.30;;;;;;5089481;28;43421;-71
2022/12/26 09:57:25;;;;;;;0.83;0.83;;;18.20;67.30;;;;;;5088885;28;43975;-70
2022/12/26 09:59:56;;;;;;;0.93;0.93;;;18.10;67.30;;;;;;5088786;28;43890;-70
2022/12/26 10:02:25;;;;;;;0.90;0.90;;;18.10;67.40;;;;;;5089183;28;43393;-73
2022/12/26 10:04:53;;;;;;;1.00;1.00;;;18.10;67.70;;;;;;5088350;28;43527;-71
2022/12/26 10:07:24;;;;;;;1.00;1.00;;;18.20;67.50;;;;;;5084363;28;43979;-72
2022/12/26 10:09:57;;;;;;;0.90;0.90;;;18.30;67.20;;;;;;5087743;28;43509;-72
2022/12/26 10:12:45;;;;;;;0.90;0.90;;;18.40;66.90;;;;;;5088570;28;43382;-71
2022/12/26 10:15:24;;;;;;;0.80;0.80;;;18.40;66.70;;;;;;5087554;28;43500;-71
2022/12/26 10:17:55;;;;;;;0.90;0.90;;;18.30;66.70;;;;;;5087764;28;43942;-71
2022/12/26 10:20:27;;;;;;;0.90;0.90;;;18.30;66.90;;;;;;5087861;27;43593;-72
2022/12/26 10:23:09;;;;;;;0.93;0.93;;;18.30;66.90;;;;;;5087698;28;43927;-71
2022/12/26 10:25:42;;;;;;;1.00;1.00;;;18.30;66.90;;;;;;5087335;28;43407;-71
2022/12/26 10:28:15;;;;;;;1.13;0.87;;;18.30;66.90;;;;;;5086137;28;43997;-71
2022/12/26 10:30:45;;;;;;;0.80;0.80;;;18.20;67.00;;;;;;5071685;28;44296;-71
2022/12/26 10:33:16;;;;;;;1.10;1.10;;;18.20;67.40;;;;;;5069930;28;43464;-71
2022/12/26 10:35:44;;;;;;;0.90;0.90;;;18.20;67.30;;;;;;5088765;28;43478;-72
2022/12/26 10:38:15;;;;;;;0.90;0.90;;;18.20;67.10;;;;;;5087846;28;44902;-71
2022/12/26 10:40:44;;;;;;;0.90;0.90;;;18.20;67.20;;;;;;5087558;28;43537;-71
2022/12/26 10:43:21;;;;;;;0.93;0.93;;;18.20;68.00;;;;;;5088303;28;43461;-71
2022/12/26 10:45:55;;;;;;;0.80;0.80;;;18.10;67.30;;;;;;5087413;28;43587;-70
2022/12/26 10:48:26;;;;;;;0.90;0.90;;;18.10;67.50;;;;;;5087828;27;44507;-73
2022/12/26 10:50:54;;;;;;;0.80;0.80;;;18.20;67.40;;;;;;5082607;28;44366;-72
2022/12/26 10:53:23;;;;;;;0.90;0.90;;;18.30;67.10;;;;;;5081590;28;43446;-72
2022/12/26 10:55:51;;;;;;;1.00;1.00;;;18.30;66.80;;;;;;5085906;28;43422;-72
2022/12/26 10:58:20;;;;;;;0.90;0.90;;;18.30;66.70;;;;;;5081355;28;43918;-70
2022/12/26 11:00:48;;;;;;;1.00;1.00;;;18.30;66.90;;;;;;5071008;28;44998;-72
2022/12/26 11:03:18;;;;;;;1.07;1.07;;;18.30;67.00;;;;;;5076980;28;43367;-73
2022/12/26 11:05:47;;;;;;;1.00;1.00;;;18.30;66.90;;;;;;5081727;28;43480;-72
2022/12/26 11:08:38;;;;;;;1.07;1.07;;;18.20;66.70;;;;;;5087452;28;43602;-70
2022/12/26 11:11:13;;;;;;;1.10;1.10;;;18.20;66.90;;;;;;5087059;28;43336;-71
2022/12/26 11:13:46;;;;;;;1.10;1.10;;;18.20;67.00;;;;;;5087138;28;43886;-72
2022/12/26 11:16:14;;;;;;;1.00;1.00;;;18.10;67.30;;;;;;5087413;28;43557;-72
2022/12/26 11:18:48;;;;;;;1.03;1.03;;;18.10;67.20;;;;;;5083718;28;43848;-71
2022/12/26 11:21:22;;;;;;;0.90;0.90;;;18.20;67.20;;;;;;5086699;28;43855;-72
2022/12/26 11:23:51;;;;;;;0.97;0.97;;;18.10;67.10;;;;;;5086459;28;43479;-73
2022/12/26 11:26:21;;;;;;;1.10;1.10;;;18.10;67.30;;;;;;5069383;28;43512;-72
2022/12/26 11:28:49;;;;;;;0.90;0.90;;;18.10;67.40;;;;;;5087334;28;43718;-70
2022/12/26 11:31:23;;;;;;;1.00;1.00;;;18.10;67.50;;;;;;5071278;27;44902;-72
2022/12/26 11:33:52;;;;;;;1.20;1.20;;;18.20;67.40;;;;;;5087001;28;43413;-73
2022/12/26 11:36:21;;;;;;;1.10;1.10;;;18.30;67.00;;;;;;5068614;28;43640;-72
2022/12/26 11:38:51;;;;;;;1.10;1.10;;;18.30;66.70;;;;;;5087437;28;43928;-71
2022/12/26 11:41:32;;;;;;;1.00;1.00;;;18.30;66.60;;;;;;5087028;28;43462;-71
2022/12/26 11:44:04;;;;;;;1.00;1.00;;;18.30;66.90;;;;;;5066392;28;43495;-71
2022/12/26 11:46:34;;;;;;;0.90;0.90;;;18.30;66.90;;;;;;5084390;28;43386;-70
2022/12/26 11:49:03;;;;;;;0.90;0.90;;;18.30;66.80;;;;;;5084254;28;44110;-71
2022/12/26 11:51:36;;;;;;;1.00;1.00;;;18.20;66.80;;;;;;5086573;28;43421;-72
2022/12/26 11:54:18;;;;;;;1.00;1.00;;;18.20;66.90;;;;;;5086359;28;43496;-72
2022/12/26 11:56:46;;;;;;;1.00;1.00;;;18.10;67.00;;;;;;5086337;28;44000;-74
2022/12/26 11:59:17;;;;;;;1.10;1.10;;;18.10;67.30;;;;;;5075200;28;46034;-72
2022/12/26 12:01:45;;;;;;;1.03;1.03;;;18.10;67.20;;;;;;5070560;28;44932;-71
2022/12/26 12:04:16;;;;;;;0.90;0.90;;;18.10;67.10;;;;;;5083945;28;43312;-71
2022/12/26 12:06:55;;;;;;;1.00;1.00;;;18.10;67.10;;;;;;5087072;28;43503;-71
2022/12/26 12:09:30;;;;;;;1.00;1.00;;;18.10;67.20;;;;;;5085177;28;43966;-71
2022/12/26 12:12:00;;;;;;;1.00;1.00;;;18.10;67.30;;;;;;5084765;28;43449;-71
2022/12/26 12:14:34;;;;;;;1.00;1.00;;;18.10;67.60;;;;;;5075099;28;43814;-70
2022/12/26 12:17:07;;;;;;;1.00;1.00;;;18.10;67.30;;;;;;5086582;28;43812;-71
2022/12/26 12:19:45;;;;;;;1.00;1.00;;;18.20;66.90;;;;;;5085935;28;43873;-71
2022/12/26 12:22:32;;;;;;;1.10;1.10;;;18.30;66.60;;;;;;5070372;28;44746;-71
2022/12/26 12:25:08;;;;;;;1.10;1.10;;;18.30;66.60;;;;;;5084533;27;43489;-73
2022/12/26 12:27:39;;;;;;;1.00;1.00;;;18.30;66.80;;;;;;5085052;27;44007;-71
2022/12/26 12:30:18;;;;;;;1.10;1.10;;;18.30;66.80;;;;;;5085529;27;43602;-71
2022/12/26 12:32:58;;;;;;;0.97;0.97;;;18.30;66.80;;;;;;5066706;28;44767;-71
2022/12/26 12:35:38;;;;;;;1.07;1.07;;;18.20;66.70;;;;;;5086569;28;43503;-71
2022/12/26 12:38:18;;;;;;;1.20;1.20;;;18.20;66.90;;;;;;5086584;28;43577;-71
2022/12/26 12:40:49;;;;;;;1.00;1.00;;;18.20;67.50;;;;;;5085166;28;43851;-71
2022/12/26 12:43:19;;;;;;;1.03;1.03;;;18.10;67.10;;;;;;5072577;28;45350;-71
2022/12/26 12:45:56;;;;;;;1.07;1.07;;;18.10;67.00;;;;;;5089650;28;43453;-72
2022/12/26 12:48:37;;;;;;;1.00;1.00;;;18.10;67.00;;;;;;5089760;28;43562;-71
2022/12/26 12:51:10;;;;;;;1.00;1.00;;;18.10;67.10;;;;;;5088948;28;43603;-71
2022/12/26 12:53:57;;;;;;;1.10;1.10;;;18.10;67.20;;;;;;5089915;28;43402;-72
2022/12/26 12:56:28;;;;;;;1.00;1.00;;;18.10;67.40;;;;;;5088358;28;43450;-71
2022/12/26 12:58:59;;;;;;;1.00;1.00;;;18.10;67.40;;;;;;5090409;28;43481;-71
2022/12/26 13:01:31;;;;;;;1.20;1.20;;;18.10;67.20;;;;;;5088975;27;43756;-73
2022/12/26 13:04:02;;;;;;;0.90;0.90;;;18.10;67.20;;;;;;5089328;28;43398;-72
2022/12/26 13:06:36;;;;;;;0.80;0.80;;;18.10;67.20;;;;;;5089494;28;43414;-71
2022/12/26 13:09:05;;;;;;;1.10;1.10;;;18.00;67.20;;;;;;5084922;28;43379;-72
2022/12/26 13:11:35;;;;;;;1.27;1.00;;;18.00;67.50;;;;;;5083489;28;43992;-71
2022/12/26 13:14:06;;;;;;;1.20;1.20;;;18.10;67.40;;;;;;5070819;28;44642;-71
2022/12/26 13:16:42;;;;;;;0.93;0.93;;;18.20;67.00;;;;;;5089506;28;43412;-71
2022/12/26 13:19:14;;;;;;;0.97;0.97;;;18.40;66.70;;;;;;5075669;28;43424;-73
2022/12/26 13:21:43;;;;;;;1.07;1.07;;;18.30;66.60;;;;;;5089229;28;43948;-71
2022/12/26 13:24:25;;;;;;;1.10;1.10;;;18.30;66.60;;;;;;5084510;28;43466;-72
2022/12/26 13:26:57;;;;;;;1.00;1.00;;;18.30;66.80;;;;;;5071064;28;43462;-71
2022/12/26 13:29:36;;;;;;;1.00;1.00;;;18.30;66.70;;;;;;5088766;28;43488;-71
2022/12/26 13:32:05;;;;;;;1.00;1.00;;;18.20;66.60;;;;;;5084073;28;43937;-73
2022/12/26 13:34:40;;;;;;;1.00;1.00;;;18.20;66.70;;;;;;5064793;28;45179;-71
2022/12/26 13:37:09;;;;;;;1.00;1.00;;;18.20;66.90;;;;;;5070597;28;43364;-72
2022/12/26 13:39:38;;;;;;;0.93;0.93;;;18.10;67.10;;;;;;5088374;28;43547;-71
2022/12/26 13:45:59;;;;;;;1.10;1.10;;;18.10;67.10;;;;;;5088635;27;43601;-71
2022/12/26 13:48:56;;;;;;;1.00;1.00;;;18.10;67.90;;;;;;5086363;28;44067;-73
2022/12/26 13:51:46;;;;;;;0.90;0.90;;;18.10;67.30;;;;;;5087079;28;43489;-70
2022/12/26 13:54:16;;;;;;;0.80;0.80;;;18.00;67.50;;;;;;5088893;27;43616;-71
2022/12/26 13:57:16;;;;;;;1.20;1.20;;;18.00;67.30;;;;;;5088484;28;43358;-71
2022/12/26 13:59:48;;;;;;;1.03;1.03;;;18.10;67.40;;;;;;5086953;28;43414;-72
2022/12/26 14:02:25;;;;;;;1.00;1.00;;;18.10;67.40;;;;;;5070828;28;43498;-70
2022/12/26 14:05:18;;;;;;;1.00;1.00;;;18.00;67.30;;;;;;5084797;28;43857;-72
2022/12/26 14:07:53;;;;;;;1.10;1.10;;;18.00;67.50;;;;;;5085912;28;43958;-70
2022/12/26 14:10:26;;;;;;;0.87;0.87;;;18.00;67.50;;;;;;5089035;28;44071;-72
2022/12/26 14:13:01;;;;;;;0.97;0.97;;;18.10;67.20;;;;;;5089156;28;43547;-71
2022/12/26 14:15:35;;;;;;;1.00;1.00;;;18.30;66.90;;;;;;5088721;28;43765;-73
2022/12/26 14:18:17;;;;;;;0.97;0.97;;;18.30;66.60;;;;;;5086513;27;43963;-71
2022/12/26 14:20:48;;;;;;;1.10;1.10;;;18.30;66.60;;;;;;5065337;28;43411;-71
2022/12/26 14:23:33;;;;;;;1.00;1.00;;;18.30;66.80;;;;;;5088768;28;43490;-71
2022/12/26 14:26:05;;;;;;;1.10;1.10;;;18.30;66.70;;;;;;5087260;28;43943;-72
2022/12/26 14:28:42;;;;;;;1.00;1.00;;;18.30;66.70;;;;;;5087968;28;43554;-72
2022/12/26 14:31:15;;;;;;;0.90;0.90;;;18.20;66.70;;;;;;5087783;28;43406;-72
2022/12/26 14:33:47;;;;;;;0.90;0.90;;;18.20;66.90;;;;;;5084881;27;43379;-72
2022/12/26 14:36:23;;;;;;;1.00;1.00;;;18.10;67.00;;;;;;5072760;28;46307;-70
2022/12/26 14:38:55;;;;;;;1.00;1.00;;;18.10;67.30;;;;;;5084496;27;43434;-72
2022/12/26 14:44:16;;;;;;;1.10;1.10;;;18.10;67.20;;;;;;5069196;28;43435;-71
2022/12/26 14:46:59;;;;;;;1.00;1.00;;;18.10;67.20;;;;;;5087335;28;43922;-72
2022/12/26 14:49:37;;;;;;;1.00;1.00;;;18.10;67.30;;;;;;5063660;27;44700;-73
2022/12/26 14:52:36;;;;;;;0.90;0.90;;;18.00;67.50;;;;;;5086360;27;43585;-71
2022/12/26 14:55:30;;;;;;;0.97;0.97;;;18.00;67.20;;;;;;5084948;28;43444;-71
2022/12/26 14:58:04;;;;;;;1.07;1.07;;;18.10;67.30;;;;;;5086131;28;43591;-70
2022/12/26 15:00:34;;;;;;;1.00;1.00;;;18.00;67.20;;;;;;5068682;28;44985;-71
2022/12/26 15:03:22;;;;;;;1.03;1.03;;;18.00;67.40;;;;;;5087421;28;43457;-71
2022/12/26 15:05:50;;;;;;;1.10;1.10;;;18.00;67.50;;;;;;5084390;28;43323;-70
2022/12/26 15:08:48;;;;;;;0.90;0.90;;;18.10;67.60;;;;;;5086700;28;43971;-70
2022/12/26 15:11:28;;;;;;;0.97;0.97;;;18.20;67.20;;;;;;5086559;28;43413;-71
2022/12/26 15:14:29;;;;;;;0.90;0.90;;;18.30;66.80;;;;;;5086628;27;43538;-71
2022/12/26 15:17:02;;;;;;;1.00;1.00;;;18.30;66.60;;;;;;5080886;28;43469;-71
2022/12/26 15:19:58;;;;;;;1.10;1.10;;;18.30;66.60;;;;;;5071071;28;45787;-71